sensor_id;sensor_type;location;lat;lon;timestamp;pressure;altitude;pressure_sealevel;temperature;humidity
70921;BME280;58572;48.110;19.838;2022-11-04T00:01:46;97644.78;;;10.82;76.10
70921;BME280;58572;48.110;19.838;2022-11-04T00:04:16;97562.78;;;10.27;75.92
70921;BME280;58572;48.110;19.838;2022-11-04T00:06:45;97634.50;;;10.55;76.88
70921;BME280;58572;48.110;19.838;2022-11-04T00:09:17;97632.50;;;10.37;77.42
70921;BME280;58572;48.110;19.838;2022-11-04T00:11:46;97630.91;;;10.60;77.17
70921;BME280;58572;48.110;19.838;2022-11-04T00:14:32;97610.06;;;10.26;76.86
70921;BME280;58572;48.110;19.838;2022-11-04T00:16:59;97633.00;;;10.44;77.45
70921;BME280;58572;48.110;19.838;2022-11-04T00:19:44;97611.44;;;10.23;77.87
70921;BME280;58572;48.110;19.838;2022-11-04T00:22:47;97631.56;;;10.22;78.25
70921;BME280;58572;48.110;19.838;2022-11-04T00:25:31;97625.88;;;10.48;77.20
70921;BME280;58572;48.110;19.838;2022-11-04T00:28:17;97628.13;;;10.65;76.04
70921;BME280;58572;48.110;19.838;2022-11-04T00:31:05;97624.44;;;10.55;77.23
70921;BME280;58572;48.110;19.838;2022-11-04T00:33:47;97621.19;;;10.53;77.37
70921;BME280;58572;48.110;19.838;2022-11-04T00:36:14;97613.75;;;10.35;77.18
70921;BME280;58572;48.110;19.838;2022-11-04T00:38:43;97514.22;;;9.68;77.28
70921;BME280;58572;48.110;19.838;2022-11-04T00:41:10;97584.50;;;9.98;78.08
70921;BME280;58572;48.110;19.838;2022-11-04T00:43:51;97382.06;;;8.86;77.81
70921;BME280;58572;48.110;19.838;2022-11-04T00:46:18;97608.25;;;10.69;76.95
70921;BME280;58572;48.110;19.838;2022-11-04T00:48:49;97427.41;;;9.10;78.01
70921;BME280;58572;48.110;19.838;2022-11-04T00:51:16;97594.88;;;10.49;77.32
70921;BME280;58572;48.110;19.838;2022-11-04T00:53:45;97600.38;;;10.44;77.56
70921;BME280;58572;48.110;19.838;2022-11-04T00:56:13;97338.69;;;8.86;77.17
70921;BME280;58572;48.110;19.838;2022-11-04T00:58:40;97581.00;;;10.27;77.75
70921;BME280;58572;48.110;19.838;2022-11-04T01:01:08;97581.75;;;10.03;79.15
70921;BME280;58572;48.110;19.838;2022-11-04T01:03:36;97581.19;;;10.59;76.89
70921;BME280;58572;48.110;19.838;2022-11-04T01:06:04;97600.19;;;10.35;76.86
70921;BME280;58572;48.110;19.838;2022-11-04T01:08:31;97536.00;;;10.15;77.35
70921;BME280;58572;48.110;19.838;2022-11-04T01:11:02;97578.72;;;10.34;77.14
70921;BME280;58572;48.110;19.838;2022-11-04T01:13:31;97447.00;;;9.59;77.46
70921;BME280;58572;48.110;19.838;2022-11-04T01:15:58;97558.00;;;10.14;78.58
70921;BME280;58572;48.110;19.838;2022-11-04T01:18:26;97303.41;;;8.62;78.50
70921;BME280;58572;48.110;19.838;2022-11-04T01:20:53;97550.16;;;10.12;78.79
70921;BME280;58572;48.110;19.838;2022-11-04T01:23:20;97479.41;;;9.75;78.52
70921;BME280;58572;48.110;19.838;2022-11-04T01:25:47;97532.59;;;10.29;77.65
70921;BME280;58572;48.110;19.838;2022-11-04T01:28:15;97529.59;;;10.54;77.05
70921;BME280;58572;48.110;19.838;2022-11-04T01:30:43;97507.72;;;10.16;77.92
70921;BME280;58572;48.110;19.838;2022-11-04T01:33:10;97532.97;;;10.46;77.40
70921;BME280;58572;48.110;19.838;2022-11-04T01:35:37;97532.97;;;10.46;77.51
70921;BME280;58572;48.110;19.838;2022-11-04T01:38:04;97525.94;;;10.82;76.06
70921;BME280;58572;48.110;19.838;2022-11-04T01:40:35;97359.63;;;9.81;75.44
70921;BME280;58572;48.110;19.838;2022-11-04T01:43:02;97522.19;;;10.78;75.54
70921;BME280;58572;48.110;19.838;2022-11-04T01:45:31;97518.31;;;10.84;75.57
70921;BME280;58572;48.110;19.838;2022-11-04T01:47:59;97512.63;;;10.62;76.29
70921;BME280;58572;48.110;19.838;2022-11-04T01:50:29;97398.66;;;9.85;76.66
70921;BME280;58572;48.110;19.838;2022-11-04T01:53:01;97388.53;;;9.48;77.63
70921;BME280;58572;48.110;19.838;2022-11-04T01:55:33;97513.28;;;10.54;76.78
70921;BME280;58572;48.110;19.838;2022-11-04T01:58:03;97515.72;;;10.74;75.55
70921;BME280;58572;48.110;19.838;2022-11-04T02:00:33;97464.09;;;10.32;76.32
70921;BME280;58572;48.110;19.838;2022-11-04T02:03:03;97520.94;;;10.90;76.08
70921;BME280;58572;48.110;19.838;2022-11-04T02:05:32;97518.97;;;10.95;74.98
70921;BME280;58572;48.110;19.838;2022-11-04T02:08:02;97517.50;;;11.03;74.44
70921;BME280;58572;48.110;19.838;2022-11-04T02:10:30;97151.38;;;8.88;74.06
70921;BME280;58572;48.110;19.838;2022-11-04T02:12:58;97503.31;;;10.68;75.91
70921;BME280;58572;48.110;19.838;2022-11-04T02:15:34;97493.09;;;10.60;76.22
70921;BME280;58572;48.110;19.838;2022-11-04T02:18:23;97494.13;;;10.21;78.17
70921;BME280;58572;48.110;19.838;2022-11-04T02:27:17;97478.03;;;10.25;77.36
70921;BME280;58572;48.110;19.838;2022-11-04T02:30:00;97476.72;;;10.65;76.81
70921;BME280;58572;48.110;19.838;2022-11-04T02:32:49;97474.28;;;10.64;75.91
70921;BME280;58572;48.110;19.838;2022-11-04T02:35:40;97470.75;;;10.63;76.90
70921;BME280;58572;48.110;19.838;2022-11-04T02:38:14;97479.06;;;10.53;76.81
70921;BME280;58572;48.110;19.838;2022-11-04T02:40:50;97387.69;;;10.14;75.92
70921;BME280;58572;48.110;19.838;2022-11-04T02:43:23;97462.97;;;10.57;76.11
70921;BME280;58572;48.110;19.838;2022-11-04T02:45:58;97459.59;;;10.65;76.29
70921;BME280;58572;48.110;19.838;2022-11-04T02:48:34;97394.53;;;10.12;75.73
70921;BME280;58572;48.110;19.838;2022-11-04T02:51:09;97455.94;;;10.32;77.17
70921;BME280;58572;48.110;19.838;2022-11-04T02:53:42;97473.03;;;10.56;76.78
70921;BME280;58572;48.110;19.838;2022-11-04T02:56:12;97460.00;;;10.34;76.71
70921;BME280;58572;48.110;19.838;2022-11-04T02:58:42;97459.38;;;10.42;77.05
70921;BME280;58572;48.110;19.838;2022-11-04T03:01:16;97454.34;;;10.31;77.61
70921;BME280;58572;48.110;19.838;2022-11-04T03:03:46;97446.22;;;10.49;77.10
70921;BME280;58572;48.110;19.838;2022-11-04T03:06:16;97325.84;;;9.69;77.21
70921;BME280;58572;48.110;19.838;2022-11-04T03:08:47;97405.81;;;10.00;77.58
70921;BME280;58572;48.110;19.838;2022-11-04T03:11:18;97360.44;;;9.82;77.85
70921;BME280;58572;48.110;19.838;2022-11-04T03:13:49;97371.50;;;9.85;78.01
70921;BME280;58572;48.110;19.838;2022-11-04T03:16:25;97427.31;;;10.20;78.07
70921;BME280;58572;48.110;19.838;2022-11-04T03:18:59;97424.28;;;10.22;78.14
70921;BME280;58572;48.110;19.838;2022-11-04T03:21:31;97428.41;;;10.38;77.19
70921;BME280;58572;48.110;19.838;2022-11-04T03:24:01;97333.66;;;9.75;77.10
70921;BME280;58572;48.110;19.838;2022-11-04T03:26:32;97432.25;;;10.13;77.76
70921;BME280;58572;48.110;19.838;2022-11-04T03:29:16;97380.53;;;9.81;78.29
70921;BME280;58572;48.110;19.838;2022-11-04T03:31:51;97429.59;;;10.08;78.64
70921;BME280;58572;48.110;19.838;2022-11-04T03:34:23;97433.03;;;10.38;76.67
70921;BME280;58572;48.110;19.838;2022-11-04T03:36:50;97336.47;;;10.08;76.22
70921;BME280;58572;48.110;19.838;2022-11-04T03:39:17;97421.06;;;10.20;77.63
70921;BME280;58572;48.110;19.838;2022-11-04T03:41:48;97354.69;;;9.65;77.84
70921;BME280;58572;48.110;19.838;2022-11-04T03:44:17;97419.75;;;10.36;77.92
70921;BME280;58572;48.110;19.838;2022-11-04T03:46:45;97417.56;;;10.14;77.84
70921;BME280;58572;48.110;19.838;2022-11-04T03:49:14;97377.03;;;9.99;77.72
70921;BME280;58572;48.110;19.838;2022-11-04T03:51:42;97413.31;;;10.08;78.62
70921;BME280;58572;48.110;19.838;2022-11-04T03:54:09;97423.22;;;10.18;78.63
70921;BME280;58572;48.110;19.838;2022-11-04T03:56:59;97403.91;;;10.19;78.70
70921;BME280;58572;48.110;19.838;2022-11-04T04:02:38;97404.47;;;10.21;78.21
70921;BME280;58572;48.110;19.838;2022-11-04T04:05:12;97344.75;;;10.16;76.69
70921;BME280;58572;48.110;19.838;2022-11-04T04:07:47;97351.09;;;10.31;75.45
70921;BME280;58572;48.110;19.838;2022-11-04T04:10:18;97404.56;;;10.54;76.10
70921;BME280;58572;48.110;19.838;2022-11-04T04:13:12;97397.81;;;10.51;76.72
70921;BME280;58572;48.110;19.838;2022-11-04T04:15:45;97400.31;;;10.48;76.38
70921;BME280;58572;48.110;19.838;2022-11-04T04:18:15;97394.66;;;10.63;76.50
70921;BME280;58572;48.110;19.838;2022-11-04T04:20:46;97396.13;;;10.13;77.82
70921;BME280;58572;48.110;19.838;2022-11-04T04:23:19;97384.91;;;10.43;76.80
70921;BME280;58572;48.110;19.838;2022-11-04T04:26:08;97383.28;;;10.18;78.49
70921;BME280;58572;48.110;19.838;2022-11-04T04:28:55;97374.31;;;10.42;77.25
70921;BME280;58572;48.110;19.838;2022-11-04T04:31:24;97376.81;;;10.57;76.42
70921;BME280;58572;48.110;19.838;2022-11-04T04:34:10;97337.25;;;10.08;77.68
70921;BME280;58572;48.110;19.838;2022-11-04T04:36:43;97365.69;;;10.35;77.38
70921;BME280;58572;48.110;19.838;2022-11-04T04:39:11;97359.47;;;10.53;76.95
70921;BME280;58572;48.110;19.838;2022-11-04T04:41:58;97363.56;;;10.32;77.25
70921;BME280;58572;48.110;19.838;2022-11-04T04:44:43;97358.28;;;10.59;76.52
70921;BME280;58572;48.110;19.838;2022-11-04T04:47:31;97339.22;;;10.45;76.09
70921;BME280;58572;48.110;19.838;2022-11-04T04:49:59;97277.44;;;9.76;77.16
70921;BME280;58572;48.110;19.838;2022-11-04T04:52:30;97350.97;;;10.41;76.21
70921;BME280;58572;48.110;19.838;2022-11-04T04:54:58;97323.63;;;10.13;77.14
70921;BME280;58572;48.110;19.838;2022-11-04T04:57:26;97259.09;;;9.68;77.46
70921;BME280;58572;48.110;19.838;2022-11-04T04:59:53;97350.97;;;10.41;76.37
70921;BME280;58572;48.110;19.838;2022-11-04T05:02:20;97280.00;;;9.48;78.88
70921;BME280;58572;48.110;19.838;2022-11-04T05:04:47;97257.72;;;9.89;75.73
70921;BME280;58572;48.110;19.838;2022-11-04T05:07:14;97329.97;;;10.46;76.51
70921;BME280;58572;48.110;19.838;2022-11-04T05:09:44;97337.72;;;10.53;75.88
70921;BME280;58572;48.110;19.838;2022-11-04T05:12:11;97326.25;;;10.18;77.19
70921;BME280;58572;48.110;19.838;2022-11-04T05:14:38;97328.16;;;9.99;78.76
70921;BME280;58572;48.110;19.838;2022-11-04T05:17:06;97330.81;;;10.04;79.24
70921;BME280;58572;48.110;19.838;2022-11-04T05:19:33;97267.47;;;9.90;78.26
70921;BME280;58572;48.110;19.838;2022-11-04T05:22:00;97320.81;;;10.18;77.64
70921;BME280;58572;48.110;19.838;2022-11-04T05:24:27;97318.66;;;10.20;77.25
70921;BME280;58572;48.110;19.838;2022-11-04T05:26:56;97316.75;;;10.21;78.10
70921;BME280;58572;48.110;19.838;2022-11-04T05:29:23;97314.81;;;10.59;76.61
70921;BME280;58572;48.110;19.838;2022-11-04T05:31:50;97177.25;;;9.60;76.84
70921;BME280;58572;48.110;19.838;2022-11-04T05:34:17;97275.75;;;10.17;76.91
70921;BME280;58572;48.110;19.838;2022-11-04T05:36:45;97078.34;;;8.96;77.13
70921;BME280;58572;48.110;19.838;2022-11-04T05:39:12;97319.66;;;9.87;79.98
70921;BME280;58572;48.110;19.838;2022-11-04T05:41:39;97314.56;;;9.80;80.79
70921;BME280;58572;48.110;19.838;2022-11-04T05:44:09;97320.41;;;10.49;77.29
70921;BME280;58572;48.110;19.838;2022-11-04T05:46:37;97327.16;;;10.33;78.33
70921;BME280;58572;48.110;19.838;2022-11-04T05:49:04;97257.78;;;9.65;78.15
70921;BME280;58572;48.110;19.838;2022-11-04T05:51:32;97323.50;;;10.42;76.86
70921;BME280;58572;48.110;19.838;2022-11-04T05:53:59;97319.13;;;10.60;76.86
70921;BME280;58572;48.110;19.838;2022-11-04T05:56:26;97335.97;;;10.24;78.21
70921;BME280;58572;48.110;19.838;2022-11-04T05:58:53;97197.28;;;9.65;76.78
70921;BME280;58572;48.110;19.838;2022-11-04T06:01:30;97321.44;;;10.53;77.06
70921;BME280;58572;48.110;19.838;2022-11-04T06:03:59;97332.88;;;10.82;75.33
70921;BME280;58572;48.110;19.838;2022-11-04T06:06:28;97336.63;;;10.86;75.47
70921;BME280;58572;48.110;19.838;2022-11-04T06:08:56;97316.59;;;10.50;75.78
70921;BME280;58572;48.110;19.838;2022-11-04T06:11:25;97340.09;;;10.41;76.61
70921;BME280;58572;48.110;19.838;2022-11-04T06:13:53;97339.69;;;10.66;75.90
70921;BME280;58572;48.110;19.838;2022-11-04T06:16:21;97285.38;;;10.10;76.43
70921;BME280;58572;48.110;19.838;2022-11-04T06:18:50;97307.16;;;10.61;75.14
70921;BME280;58572;48.110;19.838;2022-11-04T06:21:24;97343.97;;;10.86;75.24
70921;BME280;58572;48.110;19.838;2022-11-04T06:23:51;97348.09;;;10.32;77.23
70921;BME280;58572;48.110;19.838;2022-11-04T06:26:19;97350.50;;;10.34;77.23
70921;BME280;58572;48.110;19.838;2022-11-04T06:28:46;97344.47;;;10.37;76.71
70921;BME280;58572;48.110;19.838;2022-11-04T06:31:14;97342.06;;;10.86;75.44
70921;BME280;58572;48.110;19.838;2022-11-04T06:33:42;97343.25;;;10.80;74.96
70921;BME280;58572;48.110;19.838;2022-11-04T06:36:13;97310.13;;;10.46;75.50
70921;BME280;58572;48.110;19.838;2022-11-04T06:38:41;97349.19;;;10.50;77.64
70921;BME280;58572;48.110;19.838;2022-11-04T06:41:09;97350.81;;;10.51;77.18
70921;BME280;58572;48.110;19.838;2022-11-04T06:43:37;97323.72;;;10.46;75.82
70921;BME280;58572;48.110;19.838;2022-11-04T06:46:05;97352.50;;;10.47;76.62
70921;BME280;58572;48.110;19.838;2022-11-04T06:48:32;97347.00;;;10.52;76.03
70921;BME280;58572;48.110;19.838;2022-11-04T06:51:00;97304.78;;;10.41;76.18
70921;BME280;58572;48.110;19.838;2022-11-04T06:53:30;97184.16;;;10.04;76.23
70921;BME280;58572;48.110;19.838;2022-11-04T06:56:01;97343.81;;;10.96;74.97
70921;BME280;58572;48.110;19.838;2022-11-04T06:58:30;97354.59;;;11.01;75.06
70921;BME280;58572;48.110;19.838;2022-11-04T07:00:57;97341.91;;;11.10;74.03
70921;BME280;58572;48.110;19.838;2022-11-04T07:03:25;97350.38;;;11.09;74.38
70921;BME280;58572;48.110;19.838;2022-11-04T07:05:52;97351.84;;;10.55;76.25
70921;BME280;58572;48.110;19.838;2022-11-04T07:08:19;97354.97;;;10.95;75.15
70921;BME280;58572;48.110;19.838;2022-11-04T07:10:47;97356.16;;;10.88;75.45
70921;BME280;58572;48.110;19.838;2022-11-04T07:13:15;97233.56;;;10.58;74.28
70921;BME280;58572;48.110;19.838;2022-11-04T07:15:43;97348.03;;;11.02;75.73
70921;BME280;58572;48.110;19.838;2022-11-04T07:18:10;97342.13;;;11.14;75.01
70921;BME280;58572;48.110;19.838;2022-11-04T07:20:37;97329.47;;;10.91;76.63
70921;BME280;58572;48.110;19.838;2022-11-04T07:23:04;97270.72;;;10.62;75.54
70921;BME280;58572;48.110;19.838;2022-11-04T07:25:33;97307.84;;;11.13;75.04
70921;BME280;58572;48.110;19.838;2022-11-04T07:28:02;97298.66;;;10.81;76.07
70921;BME280;58572;48.110;19.838;2022-11-04T07:30:30;97157.13;;;10.13;74.84
70921;BME280;58572;48.110;19.838;2022-11-04T07:32:57;97301.41;;;11.09;74.71
70921;BME280;58572;48.110;19.838;2022-11-04T07:35:24;97212.75;;;10.15;76.10
70921;BME280;58572;48.110;19.838;2022-11-04T07:37:53;97302.78;;;10.93;75.58
70921;BME280;58572;48.110;19.838;2022-11-04T07:40:23;97314.13;;;11.55;72.90
70921;BME280;58572;48.110;19.838;2022-11-04T07:42:50;97306.13;;;11.03;75.23
70921;BME280;58572;48.110;19.838;2022-11-04T07:45:19;97303.03;;;11.37;74.82
70921;BME280;58572;48.110;19.838;2022-11-04T07:47:46;97317.31;;;11.02;75.70
70921;BME280;58572;48.110;19.838;2022-11-04T07:50:13;97312.66;;;10.88;75.56
70921;BME280;58572;48.110;19.838;2022-11-04T07:52:40;97219.16;;;10.57;74.89
70921;BME280;58572;48.110;19.838;2022-11-04T07:55:08;97306.66;;;11.19;73.58
70921;BME280;58572;48.110;19.838;2022-11-04T07:57:38;97304.44;;;11.35;73.55
70921;BME280;58572;48.110;19.838;2022-11-04T08:00:06;97295.94;;;10.95;75.89
70921;BME280;58572;48.110;19.838;2022-11-04T08:02:35;97298.97;;;10.94;75.22
70921;BME280;58572;48.110;19.838;2022-11-04T08:05:03;97300.41;;;11.05;74.81
70921;BME280;58572;48.110;19.838;2022-11-04T08:07:30;97296.56;;;11.06;74.58
70921;BME280;58572;48.110;19.838;2022-11-04T08:09:57;97302.59;;;11.03;75.40
70921;BME280;58572;48.110;19.838;2022-11-04T08:12:25;97223.63;;;10.34;74.81
70921;BME280;58572;48.110;19.838;2022-11-04T08:14:52;97299.28;;;11.06;74.30
70921;BME280;58572;48.110;19.838;2022-11-04T08:17:20;96960.25;;;9.42;72.59
70921;BME280;58572;48.110;19.838;2022-11-04T08:19:48;97296.41;;;11.57;73.97
70921;BME280;58572;48.110;19.838;2022-11-04T08:22:16;97236.81;;;11.14;73.18
70921;BME280;58572;48.110;19.838;2022-11-04T08:24:43;97298.28;;;11.29;74.29
70921;BME280;58572;48.110;19.838;2022-11-04T08:27:12;97285.41;;;11.48;73.81
70921;BME280;58572;48.110;19.838;2022-11-04T08:29:39;97279.03;;;11.39;74.16
70921;BME280;58572;48.110;19.838;2022-11-04T08:32:07;97285.59;;;11.11;75.28
70921;BME280;58572;48.110;19.838;2022-11-04T08:34:34;97282.19;;;11.46;74.28
70921;BME280;58572;48.110;19.838;2022-11-04T08:37:03;97272.69;;;11.58;73.89
70921;BME280;58572;48.110;19.838;2022-11-04T08:39:30;97278.63;;;11.32;74.00
70921;BME280;58572;48.110;19.838;2022-11-04T08:41:57;97276.81;;;11.14;75.19
70921;BME280;58572;48.110;19.838;2022-11-04T08:44:25;97278.66;;;11.46;74.48
70921;BME280;58572;48.110;19.838;2022-11-04T08:46:52;97231.50;;;10.96;73.97
70921;BME280;58572;48.110;19.838;2022-11-04T08:49:21;97232.91;;;10.93;74.59
70921;BME280;58572;48.110;19.838;2022-11-04T08:51:48;97269.38;;;11.47;73.58
70921;BME280;58572;48.110;19.838;2022-11-04T08:54:22;97263.31;;;11.36;74.25
70921;BME280;58572;48.110;19.838;2022-11-04T08:56:50;97265.34;;;11.44;74.64
70921;BME280;58572;48.110;19.838;2022-11-04T08:59:17;97257.88;;;11.77;72.48
70921;BME280;58572;48.110;19.838;2022-11-04T09:01:44;97254.41;;;11.72;72.58
70921;BME280;58572;48.110;19.838;2022-11-04T09:04:11;97252.63;;;11.81;73.14
70921;BME280;58572;48.110;19.838;2022-11-04T09:06:40;97241.22;;;11.65;73.15
70921;BME280;58572;48.110;19.838;2022-11-04T09:09:11;97247.84;;;11.87;73.00
70921;BME280;58572;48.110;19.838;2022-11-04T09:11:42;97233.66;;;11.62;73.33
70921;BME280;58572;48.110;19.838;2022-11-04T09:14:10;97225.50;;;11.62;73.27
70921;BME280;58572;48.110;19.838;2022-11-04T09:16:39;97186.88;;;11.96;71.27
70921;BME280;58572;48.110;19.838;2022-11-04T09:19:07;97217.59;;;12.55;70.37
70921;BME280;58572;48.110;19.838;2022-11-04T09:21:34;97185.41;;;12.12;71.27
70921;BME280;58572;48.110;19.838;2022-11-04T09:24:01;97211.72;;;12.17;72.66
70921;BME280;58572;48.110;19.838;2022-11-04T09:26:29;97127.84;;;12.36;69.67
70921;BME280;58572;48.110;19.838;2022-11-04T09:28:58;97210.22;;;12.33;71.84
70921;BME280;58572;48.110;19.838;2022-11-04T09:31:27;97204.19;;;12.67;70.60
70921;BME280;58572;48.110;19.838;2022-11-04T09:33:55;97204.69;;;12.47;70.45
70921;BME280;58572;48.110;19.838;2022-11-04T09:36:22;97195.47;;;12.34;69.33
70921;BME280;58572;48.110;19.838;2022-11-04T09:38:50;97095.22;;;12.23;68.51
70921;BME280;58572;48.110;19.838;2022-11-04T09:41:31;97196.81;;;13.56;68.38
70921;BME280;58572;48.110;19.838;2022-11-04T09:44:17;97190.25;;;12.69;69.71
70921;BME280;58572;48.110;19.838;2022-11-04T09:46:48;97207.84;;;12.63;69.35
70921;BME280;58572;48.110;19.838;2022-11-04T09:49:17;97202.47;;;12.27;71.04
70921;BME280;58572;48.110;19.838;2022-11-04T09:51:46;97195.28;;;12.53;70.33
70921;BME280;58572;48.110;19.838;2022-11-04T09:54:19;97191.19;;;12.64;70.40
70921;BME280;58572;48.110;19.838;2022-11-04T09:56:48;97193.78;;;12.47;71.56
70921;BME280;58572;48.110;19.838;2022-11-04T09:59:24;97194.53;;;12.61;70.74
70921;BME280;58572;48.110;19.838;2022-11-04T10:02:14;97158.22;;;12.83;69.54
70921;BME280;58572;48.110;19.838;2022-11-04T10:04:47;97182.09;;;12.77;69.91
70921;BME280;58572;48.110;19.838;2022-11-04T10:07:35;97173.78;;;12.83;70.08
70921;BME280;58572;48.110;19.838;2022-11-04T10:10:09;97061.44;;;12.72;67.70
70921;BME280;58572;48.110;19.838;2022-11-04T10:12:53;97170.16;;;13.53;67.20
70921;BME280;58572;48.110;19.838;2022-11-04T10:18:43;97153.56;;;12.84;69.49
70921;BME280;58572;48.110;19.838;2022-11-04T10:21:21;97157.13;;;12.93;70.05
70921;BME280;58572;48.110;19.838;2022-11-04T10:24:04;97152.06;;;13.17;69.17
70921;BME280;58572;48.110;19.838;2022-11-04T10:26:37;97151.72;;;13.10;69.91
70921;BME280;58572;48.110;19.838;2022-11-04T10:29:13;97148.81;;;13.15;69.03
70921;BME280;58572;48.110;19.838;2022-11-04T10:31:43;97137.69;;;12.86;69.71
70921;BME280;58572;48.110;19.838;2022-11-04T10:34:21;97135.78;;;12.95;69.40
70921;BME280;58572;48.110;19.838;2022-11-04T10:36:51;97134.44;;;13.23;68.76
70921;BME280;58572;48.110;19.838;2022-11-04T10:39:26;97131.44;;;12.94;69.73
70921;BME280;58572;48.110;19.838;2022-11-04T10:41:54;97074.78;;;12.91;68.91
70921;BME280;58572;48.110;19.838;2022-11-04T10:44:25;97051.78;;;12.57;69.61
70921;BME280;58572;48.110;19.838;2022-11-04T10:47:03;97023.88;;;12.60;67.74
70921;BME280;58572;48.110;19.838;2022-11-04T10:49:44;97127.03;;;12.67;70.62
70921;BME280;58572;48.110;19.838;2022-11-04T10:52:16;97123.66;;;12.70;70.25
70921;BME280;58572;48.110;19.838;2022-11-04T10:54:46;97033.16;;;12.51;69.32
70921;BME280;58572;48.110;19.838;2022-11-04T10:57:17;97122.22;;;13.29;68.82
70921;BME280;58572;48.110;19.838;2022-11-04T10:59:52;96882.25;;;11.81;68.90
70921;BME280;58572;48.110;19.838;2022-11-04T11:02:42;97068.63;;;12.59;70.33
70921;BME280;58572;48.110;19.838;2022-11-04T11:05:22;97111.47;;;13.24;69.23
70921;BME280;58572;48.110;19.838;2022-11-04T11:07:49;97104.88;;;13.25;69.92
70921;BME280;58572;48.110;19.838;2022-11-04T11:10:20;97108.03;;;13.10;70.52
70921;BME280;58572;48.110;19.838;2022-11-04T11:12:52;97114.97;;;13.16;70.12
70921;BME280;58572;48.110;19.838;2022-11-04T11:15:29;97109.16;;;13.00;70.40
70921;BME280;58572;48.110;19.838;2022-11-04T11:18:11;97100.22;;;13.26;69.83
70921;BME280;58572;48.110;19.838;2022-11-04T11:20:41;97104.50;;;13.01;71.05
70921;BME280;58572;48.110;19.838;2022-11-04T11:23:34;97105.09;;;12.81;71.59
70921;BME280;58572;48.110;19.838;2022-11-04T11:26:03;97096.13;;;12.89;70.67
70921;BME280;58572;48.110;19.838;2022-11-04T11:28:32;97090.22;;;13.13;70.50
70921;BME280;58572;48.110;19.838;2022-11-04T11:31:05;97091.78;;;12.88;70.47
70921;BME280;58572;48.110;19.838;2022-11-04T11:33:37;97088.44;;;12.99;70.29
70921;BME280;58572;48.110;19.838;2022-11-04T11:36:14;97085.84;;;12.86;70.46
70921;BME280;58572;48.110;19.838;2022-11-04T11:38:59;97016.50;;;12.69;69.91
70921;BME280;58572;48.110;19.838;2022-11-04T11:41:28;96989.47;;;12.42;70.35
70921;BME280;58572;48.110;19.838;2022-11-04T11:44:01;97068.03;;;12.88;70.78
70921;BME280;58572;48.110;19.838;2022-11-04T11:46:32;97074.00;;;12.99;71.57
70921;BME280;58572;48.110;19.838;2022-11-04T11:49:01;97068.69;;;12.94;70.46
70921;BME280;58572;48.110;19.838;2022-11-04T11:51:31;97067.63;;;13.29;69.87
70921;BME280;58572;48.110;19.838;2022-11-04T11:54:16;97074.66;;;13.04;70.23
70921;BME280;58572;48.110;19.838;2022-11-04T11:56:49;96917.56;;;12.03;70.15
70921;BME280;58572;48.110;19.838;2022-11-04T11:59:28;97069.47;;;12.86;71.20
70921;BME280;58572;48.110;19.838;2022-11-04T12:02:23;97021.28;;;12.55;71.43
70921;BME280;58572;48.110;19.838;2022-11-04T12:04:53;97052.84;;;12.47;71.25
70921;BME280;58572;48.110;19.838;2022-11-04T12:07:28;97066.28;;;12.84;71.44
70921;BME280;58572;48.110;19.838;2022-11-04T12:10:07;96952.59;;;12.36;70.58
70921;BME280;58572;48.110;19.838;2022-11-04T12:12:48;97039.00;;;13.01;70.02
70921;BME280;58572;48.110;19.838;2022-11-04T12:15:39;96953.97;;;12.16;71.33
70921;BME280;58572;48.110;19.838;2022-11-04T12:18:25;97062.19;;;12.55;72.02
70921;BME280;58572;48.110;19.838;2022-11-04T12:21:00;97059.53;;;12.90;71.20
70921;BME280;58572;48.110;19.838;2022-11-04T12:23:38;97057.72;;;12.68;71.06
70921;BME280;58572;48.110;19.838;2022-11-04T12:26:15;97063.03;;;12.64;71.41
70921;BME280;58572;48.110;19.838;2022-11-04T12:28:56;97055.84;;;12.77;71.96
70921;BME280;58572;48.110;19.838;2022-11-04T12:31:35;97059.03;;;12.79;71.63
70921;BME280;58572;48.110;19.838;2022-11-04T12:34:15;97061.44;;;12.81;71.78
70921;BME280;58572;48.110;19.838;2022-11-04T12:36:59;97059.66;;;12.67;71.46
70921;BME280;58572;48.110;19.838;2022-11-04T12:39:47;97055.28;;;12.49;72.46
70921;BME280;58572;48.110;19.838;2022-11-04T12:42:20;97051.81;;;12.74;71.21
70921;BME280;58572;48.110;19.838;2022-11-04T12:44:59;97047.63;;;12.68;71.28
70921;BME280;58572;48.110;19.838;2022-11-04T12:47:34;97050.91;;;12.48;71.74
70921;BME280;58572;48.110;19.838;2022-11-04T12:50:13;97045.50;;;12.57;72.18
70921;BME280;58572;48.110;19.838;2022-11-04T12:52:58;96959.47;;;12.25;71.33
70921;BME280;58572;48.110;19.838;2022-11-04T12:55:37;97034.31;;;12.75;71.05
70921;BME280;58572;48.110;19.838;2022-11-04T12:58:17;97033.72;;;12.39;72.31
70921;BME280;58572;48.110;19.838;2022-11-04T13:00:53;97004.75;;;12.03;72.92
70921;BME280;58572;48.110;19.838;2022-11-04T13:03:27;97036.38;;;12.22;72.84
70921;BME280;58572;48.110;19.838;2022-11-04T13:06:01;97041.53;;;12.23;72.75
70921;BME280;58572;48.110;19.838;2022-11-04T13:08:35;97035.97;;;12.37;72.49
70921;BME280;58572;48.110;19.838;2022-11-04T13:11:11;97031.78;;;12.31;72.55
70921;BME280;58572;48.110;19.838;2022-11-04T13:13:52;97035.91;;;12.20;73.75
70921;BME280;58572;48.110;19.838;2022-11-04T13:16:23;97029.59;;;12.10;73.85
70921;BME280;58572;48.110;19.838;2022-11-04T13:18:50;97028.66;;;12.15;73.39
70921;BME280;58572;48.110;19.838;2022-11-04T13:21:20;97019.19;;;12.12;74.08
70921;BME280;58572;48.110;19.838;2022-11-04T13:23:51;97021.16;;;12.69;72.26
70921;BME280;58572;48.110;19.838;2022-11-04T13:26:23;97009.94;;;12.70;71.78
70921;BME280;58572;48.110;19.838;2022-11-04T13:28:58;97020.06;;;12.78;72.28